createdAt,value
2023-02-22T06:29:34.105Z,100561.25
2023-02-22T06:32:36.904Z,100563.88
2023-02-22T06:35:39.383Z,100558.66
2023-02-22T06:38:41.880Z,100563.72
2023-02-22T06:41:45.017Z,100555.78
2023-02-22T06:44:49.787Z,100559.88
2023-02-22T06:47:53.963Z,100563.16
2023-02-22T06:50:56.458Z,100561.91
2023-02-22T06:53:59.105Z,100561.41
2023-02-22T06:57:01.723Z,100558.25
2023-02-22T07:00:06.300Z,100560.25
2023-02-22T07:03:08.832Z,100566.53
2023-02-22T07:06:11.451Z,100564.22
2023-02-22T07:09:13.960Z,100567.72
2023-02-22T07:12:16.468Z,100571.66
2023-02-22T07:15:22.430Z,100577.16
2023-02-22T07:18:25.076Z,100585.16
2023-02-22T07:21:27.578Z,100593.66
2023-02-22T07:24:30.074Z,100613.94
2023-02-22T07:27:32.572Z,100627.91
2023-02-22T07:30:36.433Z,100646.94
2023-02-22T07:33:38.955Z,100660.22
2023-02-22T07:36:41.423Z,100651.28
2023-02-22T07:39:43.949Z,100665.06
2023-02-22T07:42:54.385Z,100675.75
2023-02-22T07:46:02.750Z,100674.47
2023-02-22T07:49:05.328Z,100674.78
2023-02-22T07:52:08.185Z,100663.22
2023-02-22T07:55:10.674Z,100654.28
2023-02-22T07:58:15.935Z,100659.78
2023-02-22T08:01:19.946Z,100651.50
2023-02-22T08:04:22.499Z,100650.53
2023-02-22T08:07:25.041Z,100654.38
2023-02-22T08:10:27.897Z,100661.22
2023-02-22T08:13:30.559Z,100660.41
2023-02-22T08:16:34.445Z,100661.13
2023-02-22T08:19:36.946Z,100664.16
2023-02-22T08:22:40.194Z,100661.88
2023-02-22T08:25:43.297Z,100657.81
2023-02-22T08:28:45.786Z,100665.25
2023-02-22T08:31:54.179Z,100672.66
2023-02-22T08:34:56.897Z,100668.50
2023-02-22T08:38:02.245Z,100677.22
2023-02-22T08:41:05.017Z,100672.50
2023-02-22T08:44:07.490Z,100671.47
2023-02-22T08:47:11.301Z,100676.13
2023-02-22T08:50:18.324Z,100678.53
2023-02-22T08:53:20.841Z,100674.84
2023-02-22T08:56:24.246Z,100678.88
2023-02-22T08:59:27.265Z,100676.88
2023-02-22T09:02:31.072Z,100677.97
2023-02-22T09:05:34.133Z,100680.19
2023-02-22T09:08:36.595Z,100678.53
2023-02-22T09:11:39.072Z,100686.69
2023-02-22T09:14:42.938Z,100689.66
2023-02-22T09:17:46.944Z,100690.09
2023-02-22T09:20:49.468Z,100680.81
2023-02-22T09:23:54.660Z,100690.91
2023-02-22T09:26:59.242Z,100700.59
2023-02-22T09:30:02.195Z,100691.91
2023-02-22T09:33:10.038Z,100694.28
2023-02-22T09:36:12.696Z,100700.03
2023-02-22T09:39:16.098Z,100702.84
2023-02-22T09:42:28.624Z,100699.19
2023-02-22T09:45:36.930Z,100698.66
2023-02-22T09:48:52.389Z,100700.28
2023-02-22T09:52:02.608Z,100696.25
2023-02-22T09:55:10.160Z,100696.63
2023-02-22T09:58:21.837Z,100693.72
2023-02-22T10:01:29.687Z,100691.06
2023-02-22T10:04:41.393Z,100690.72
2023-02-22T10:07:52.096Z,100689.16
2023-02-22T10:11:03.212Z,100688.28
2023-02-22T10:14:24.725Z,100690.19
2023-02-22T10:17:34.273Z,100680.22
2023-02-22T10:20:49.470Z,100682.28
2023-02-22T10:24:02.169Z,100677.13
2023-02-22T10:27:07.770Z,100682.44
2023-02-22T10:30:24.882Z,100687.50
2023-02-22T10:33:33.074Z,100677.88
2023-02-22T10:36:39.125Z,100676.66
2023-02-22T10:39:43.172Z,100681.28
2023-02-22T10:42:45.856Z,100672.09
2023-02-22T10:45:48.575Z,100677.38
2023-02-22T10:48:54.907Z,100673.84
2023-02-22T10:52:01.571Z,100671.09
2023-02-22T10:55:15.264Z,100671.28
2023-02-22T10:58:18.303Z,100660.25
2023-02-22T11:01:28.561Z,100661.41
2023-02-22T11:04:47.019Z,100670.44
2023-02-22T11:07:50.936Z,100665.16
2023-02-22T11:10:56.125Z,100665.16
2023-02-22T11:13:59.652Z,100660.31
2023-02-22T11:17:07.506Z,100665.81
2023-02-22T11:20:25.247Z,100659.84
2023-02-22T11:23:29.859Z,100660.97
2023-02-22T11:26:40.684Z,100655.94
2023-02-22T11:29:43.763Z,100655.09
2023-02-22T11:32:49.128Z,100651.22
2023-02-22T11:35:53.710Z,100650.38
2023-02-22T11:39:00.693Z,100647.31
2023-02-22T11:42:21.274Z,100646.97
2023-02-22T11:45:24.944Z,100639.13
2023-02-22T11:48:29.204Z,100630.81
2023-02-22T11:51:45.085Z,100624.03
2023-02-22T11:55:05.949Z,100623.19
2023-02-22T11:58:26.530Z,100622.88
2023-02-22T12:01:40.160Z,100623.66
2023-02-22T12:05:18.471Z,100617.72
2023-02-22T12:08:32.818Z,100615.41
2023-02-22T12:11:46.247Z,100619.00
2023-02-22T12:14:59.670Z,100624.75
2023-02-22T12:18:11.843Z,100621.50
2023-02-22T12:21:17.700Z,100623.59
2023-02-22T12:24:23.571Z,100625.19
2023-02-22T12:27:31.665Z,100623.19
2023-02-22T12:30:39.459Z,100618.91
2023-02-22T12:33:51.483Z,100626.88
2023-02-22T12:37:01.025Z,100625.97
2023-02-22T12:40:09.079Z,100617.91
2023-02-22T12:43:17.565Z,100607.63
2023-02-22T12:46:25.267Z,100612.84
2023-02-22T12:49:35.839Z,100611.63
2023-02-22T12:52:45.149Z,100619.19
2023-02-22T12:55:52.208Z,100615.50
2023-02-22T12:59:02.925Z,100610.72
2023-02-22T13:02:16.774Z,100614.31
2023-02-22T13:05:20.780Z,100615.78
2023-02-22T13:08:33.150Z,100604.56
2023-02-22T13:11:43.355Z,100603.03
2023-02-22T13:14:59.930Z,100609.06
2023-02-22T13:18:11.565Z,100604.63
2023-02-22T13:21:19.979Z,100596.72
2023-02-22T13:24:30.354Z,100598.50
2023-02-22T13:27:39.615Z,100598.78
2023-02-22T13:30:49.876Z,100600.50
2023-02-22T13:34:07.240Z,100605.19
2023-02-22T13:37:35.854Z,100593.91
2023-02-22T13:40:56.249Z,100602.78
2023-02-22T13:44:37.456Z,100594.66
2023-02-22T13:48:03.703Z,100596.66
2023-02-22T13:51:12.121Z,100596.28
2023-02-22T13:54:21.468Z,100593.03
2023-02-22T13:57:27.058Z,100597.56
2023-02-22T14:00:46.332Z,100594.72
2023-02-22T14:03:50.168Z,100589.16
2023-02-22T14:06:52.752Z,100589.91
2023-02-22T14:09:56.423Z,100594.09
2023-02-22T14:13:05.705Z,100586.34
2023-02-22T14:16:24.227Z,100591.25
2023-02-22T14:19:28.198Z,100586.75
2023-02-22T14:22:31.257Z,100584.84
2023-02-22T14:25:38.622Z,100578.84
2023-02-22T14:28:52.550Z,100572.78
2023-02-22T14:32:07.502Z,100575.13
2023-02-22T14:35:28.710Z,100570.75
2023-02-22T14:38:35.982Z,100573.09
2023-02-22T14:41:41.215Z,100568.69
2023-02-22T14:44:53.357Z,100572.72
2023-02-22T14:48:04.066Z,100573.16
2023-02-22T14:51:21.784Z,100572.41
2023-02-22T14:54:31.687Z,100568.75
2023-02-22T14:57:44.447Z,100569.66
2023-02-22T15:00:48.914Z,100566.44
2023-02-22T15:04:07.243Z,100567.31
2023-02-22T15:07:28.171Z,100569.97
2023-02-22T15:10:32.393Z,100558.78
2023-02-22T15:13:35.033Z,100564.28
2023-02-22T15:16:39.593Z,100559.28
2023-02-22T15:19:43.247Z,100556.50
2023-02-22T15:22:49.007Z,100554.97
2023-02-22T15:25:51.774Z,100548.94
2023-02-22T15:28:56.046Z,100550.81
2023-02-22T15:31:58.549Z,100546.47
2023-02-22T15:35:13.941Z,100548.59
2023-02-22T15:38:21.995Z,100548.59
2023-02-22T15:41:30.366Z,100545.28
2023-02-22T15:44:36.930Z,100550.75
2023-02-22T15:47:40.110Z,100544.81
2023-02-22T15:51:00.409Z,100545.59
2023-02-22T15:54:13.308Z,100537.28
2023-02-22T15:57:27.397Z,100536.66
2023-02-22T16:00:36.891Z,100536.03
2023-02-22T16:03:44.990Z,100531.66
2023-02-22T16:06:48.604Z,100534.31
2023-02-22T16:09:53.264Z,100524.91
2023-02-22T16:13:16.643Z,100531.16
2023-02-22T16:16:31.035Z,100525.97
2023-02-22T16:19:40.732Z,100529.50
2023-02-22T16:22:49.194Z,100534.13
2023-02-22T16:26:11.494Z,100530.69
2023-02-22T16:29:26.705Z,100524.69
2023-02-22T16:32:30.661Z,100527.69
2023-02-22T16:35:35.482Z,100530.50
